Time;durP1;ratioP1;P1;durP2;ratioP2;P2;SDS_P1;SDS_P2;PMS_P1;PMS_P2;Temp;Humidity;BMP_temperature;BMP_pressure;BME280_temperature;BME280_humidity;BME280_pressure;Samples;Min_cycle;Max_cycle;Signal;HPM_P1;HPM_P2
2024/01/19 00:01:05;;;;;;;23.30;18.37;;;0.10;99.90;;;;;;5037954;28;20202;-70
2024/01/19 00:03:31;;;;;;;26.67;17.83;;;0.10;99.90;;;;;;5048909;28;20177;-70
2024/01/19 00:05:56;;;;;;;29.07;18.70;;;0.10;99.90;;;;;;5035394;28;20197;-70
2024/01/19 00:08:22;;;;;;;25.07;16.53;;;0.20;99.90;;;;;;5035567;28;20178;-70
2024/01/19 00:10:47;;;;;;;23.53;16.20;;;0.20;99.90;;;;;;5046133;28;20178;-70
2024/01/19 00:13:13;;;;;;;26.60;17.37;;;0.30;99.90;;;;;;5034628;28;20252;-70
2024/01/19 00:15:39;;;;;;;25.17;18.77;;;0.30;99.90;;;;;;5043221;28;20193;-70
2024/01/19 00:18:04;;;;;;;27.37;19.53;;;0.20;99.90;;;;;;5047661;28;20611;-70
2024/01/19 00:20:30;;;;;;;31.03;17.67;;;0.30;99.90;;;;;;5033557;28;20440;-71
2024/01/19 00:22:55;;;;;;;30.40;17.13;;;0.30;99.90;;;;;;5039140;28;20201;-70
2024/01/19 00:25:21;;;;;;;26.83;17.70;;;0.30;99.90;;;;;;5042987;28;20240;-70
2024/01/19 00:27:46;;;;;;;26.70;17.20;;;0.40;99.90;;;;;;5038540;28;20173;-71
2024/01/19 00:30:12;;;;;;;23.40;16.80;;;0.30;99.90;;;;;;5047783;28;20265;-70
2024/01/19 00:32:38;;;;;;;31.37;17.37;;;0.30;99.90;;;;;;5042617;28;20666;-70
2024/01/19 00:35:03;;;;;;;26.23;17.07;;;0.30;99.90;;;;;;5042744;28;20179;-70
2024/01/19 00:37:29;;;;;;;29.03;19.20;;;0.30;99.90;;;;;;5011809;28;20207;-70
2024/01/19 00:39:54;;;;;;;28.93;16.67;;;0.30;99.90;;;;;;5015818;28;20182;-71
2024/01/19 00:42:20;;;;;;;27.20;18.20;;;0.40;99.90;;;;;;5038954;28;20213;-70
2024/01/19 00:44:45;;;;;;;28.13;17.17;;;0.40;99.90;;;;;;5047543;28;20656;-70
2024/01/19 00:47:11;;;;;;;27.00;18.40;;;0.40;99.90;;;;;;5031520;28;20227;-70
2024/01/19 00:49:36;;;;;;;27.33;17.70;;;0.40;99.90;;;;;;5040230;28;20254;-70
2024/01/19 00:52:02;;;;;;;23.37;15.17;;;0.30;99.90;;;;;;5040109;28;20337;-71
2024/01/19 00:54:28;;;;;;;35.60;21.87;;;0.30;99.90;;;;;;5050545;28;20570;-71
2024/01/19 00:56:54;;;;;;;24.00;16.43;;;0.30;99.90;;;;;;5042686;28;20198;-71
2024/01/19 00:59:19;;;;;;;23.63;16.47;;;0.40;99.90;;;;;;5055351;28;20992;-70
2024/01/19 01:01:45;;;;;;;29.70;17.60;;;0.40;99.90;;;;;;5047063;28;20208;-70
2024/01/19 01:04:10;;;;;;;24.63;15.73;;;0.30;99.90;;;;;;5046894;28;20747;-70
2024/01/19 01:06:35;;;;;;;24.30;16.40;;;0.40;99.90;;;;;;5041143;28;20695;-70
2024/01/19 01:09:02;;;;;;;23.37;16.43;;;0.40;99.90;;;;;;5035141;28;20275;-71
2024/01/19 01:11:28;;;;;;;24.43;16.50;;;0.40;99.90;;;;;;5042181;28;20674;-71
2024/01/19 01:13:53;;;;;;;27.00;16.30;;;0.40;99.90;;;;;;5041725;28;20433;-70
2024/01/19 01:16:19;;;;;;;24.83;16.40;;;0.30;99.90;;;;;;5044795;28;20188;-71
2024/01/19 01:18:45;;;;;;;22.80;16.07;;;0.40;99.90;;;;;;5046690;28;20225;-71
2024/01/19 01:21:11;;;;;;;23.60;16.03;;;0.40;99.90;;;;;;5043551;28;20460;-71
2024/01/19 01:23:36;;;;;;;23.67;16.27;;;0.40;99.90;;;;;;5048250;28;20189;-71
2024/01/19 01:26:02;;;;;;;23.03;15.67;;;0.40;99.90;;;;;;5041896;28;20301;-70
2024/01/19 01:28:28;;;;;;;25.77;18.43;;;0.40;99.90;;;;;;5046809;28;20210;-70
2024/01/19 01:30:54;;;;;;;34.03;16.27;;;0.30;99.90;;;;;;5032890;28;20479;-70
2024/01/19 01:33:20;;;;;;;31.80;17.40;;;0.30;99.90;;;;;;5042574;28;20182;-70
2024/01/19 01:35:45;;;;;;;23.67;17.10;;;0.30;99.90;;;;;;5041151;28;20185;-70
2024/01/19 01:38:11;;;;;;;23.83;16.23;;;0.30;99.90;;;;;;5044858;28;20899;-70
2024/01/19 01:40:37;;;;;;;20.80;17.37;;;0.30;99.90;;;;;;5048740;28;20822;-71
2024/01/19 01:43:04;;;;;;;25.73;17.90;;;0.30;99.90;;;;;;5043674;28;20576;-70
2024/01/19 01:45:30;;;;;;;27.93;16.53;;;0.40;99.90;;;;;;5040057;28;20202;-70
2024/01/19 01:47:56;;;;;;;24.60;16.20;;;0.40;99.90;;;;;;5042124;28;20429;-71
2024/01/19 01:50:22;;;;;;;22.10;14.83;;;0.40;99.90;;;;;;5036999;28;20224;-71
2024/01/19 01:52:48;;;;;;;25.03;16.70;;;0.30;99.90;;;;;;5033035;28;20454;-71
2024/01/19 01:55:15;;;;;;;26.50;15.33;;;0.30;99.90;;;;;;5042788;28;20501;-70
2024/01/19 01:57:43;;;;;;;25.80;18.10;;;0.30;99.90;;;;;;5040906;28;20182;-71
2024/01/19 02:00:09;;;;;;;29.97;18.80;;;0.30;99.90;;;;;;5051214;28;20451;-71
2024/01/19 02:02:36;;;;;;;30.07;18.07;;;0.30;99.90;;;;;;5024386;28;20452;-70
2024/01/19 02:05:02;;;;;;;28.50;18.63;;;0.30;99.90;;;;;;5041817;28;20507;-71
2024/01/19 02:07:28;;;;;;;29.70;17.87;;;0.20;99.90;;;;;;5037994;28;20466;-70
2024/01/19 02:09:53;;;;;;;23.93;17.37;;;0.20;99.90;;;;;;5037018;28;20455;-71
2024/01/19 02:12:21;;;;;;;23.50;17.23;;;0.20;99.90;;;;;;5041602;28;20201;-70
2024/01/19 02:14:47;;;;;;;24.93;16.90;;;0.20;99.90;;;;;;5047974;28;20209;-71
2024/01/19 02:17:12;;;;;;;27.73;19.07;;;0.20;99.90;;;;;;5036085;28;20455;-70
2024/01/19 02:19:39;;;;;;;27.50;17.97;;;0.20;99.90;;;;;;5034055;28;20534;-71
2024/01/19 02:22:04;;;;;;;24.87;17.13;;;0.20;99.90;;;;;;5036832;28;20194;-70
2024/01/19 02:24:31;;;;;;;23.40;15.97;;;0.20;99.90;;;;;;5040521;28;20828;-70
2024/01/19 02:26:58;;;;;;;29.30;17.17;;;0.20;99.90;;;;;;5040328;28;20239;-70
2024/01/19 02:29:23;;;;;;;28.13;17.43;;;0.20;99.90;;;;;;5042057;28;20437;-71
2024/01/19 02:31:49;;;;;;;28.80;17.90;;;0.20;99.90;;;;;;5035525;28;20453;-70
2024/01/19 02:34:14;;;;;;;26.40;16.40;;;0.20;99.90;;;;;;5030531;28;20189;-70
2024/01/19 02:36:40;;;;;;;25.50;19.00;;;0.20;99.90;;;;;;5034483;28;20671;-70
2024/01/19 02:39:05;;;;;;;27.23;17.57;;;0.20;99.90;;;;;;5014944;28;20174;-71
2024/01/19 02:41:32;;;;;;;23.83;16.33;;;0.30;99.90;;;;;;5025406;28;20313;-70
2024/01/19 02:43:57;;;;;;;27.03;19.10;;;0.30;99.90;;;;;;5038860;28;20241;-70
2024/01/19 02:46:23;;;;;;;23.13;17.77;;;0.20;99.90;;;;;;5037379;28;20463;-70
2024/01/19 02:48:48;;;;;;;25.03;17.70;;;0.10;99.90;;;;;;5044389;28;20260;-70
2024/01/19 02:51:14;;;;;;;27.70;16.77;;;0.20;99.90;;;;;;5044845;28;20284;-70
2024/01/19 02:53:40;;;;;;;26.57;16.67;;;0.10;99.90;;;;;;5021702;28;20652;-70
2024/01/19 02:56:05;;;;;;;27.90;17.97;;;0.10;99.90;;;;;;5019842;28;20899;-70
2024/01/19 02:58:31;;;;;;;25.67;17.27;;;0.00;99.90;;;;;;5038668;28;20236;-70
2024/01/19 03:00:59;;;;;;;22.67;16.00;;;0.00;99.90;;;;;;5034049;28;20207;-70
2024/01/19 03:03:24;;;;;;;27.80;18.73;;;-0.10;99.90;;;;;;5045004;28;20177;-70
2024/01/19 03:05:50;;;;;;;29.33;17.67;;;-0.10;99.90;;;;;;5037059;28;20609;-70
2024/01/19 03:08:16;;;;;;;26.13;16.00;;;-0.20;99.90;;;;;;5022040;28;20186;-70
2024/01/19 03:10:41;;;;;;;28.93;18.60;;;-0.20;99.90;;;;;;5013162;28;20637;-70
2024/01/19 03:13:07;;;;;;;25.33;17.20;;;-0.20;99.90;;;;;;5045656;28;20267;-70
2024/01/19 03:15:32;;;;;;;29.50;18.10;;;-0.30;99.90;;;;;;5032377;28;20179;-70
2024/01/19 03:17:58;;;;;;;21.47;17.27;;;-0.20;99.90;;;;;;5039883;28;20194;-70
2024/01/19 03:20:23;;;;;;;28.33;15.63;;;-0.30;99.90;;;;;;5046952;28;20190;-70
2024/01/19 03:22:49;;;;;;;26.30;18.70;;;-0.40;99.90;;;;;;5027796;28;20206;-70
2024/01/19 03:25:15;;;;;;;25.10;17.43;;;-0.40;99.90;;;;;;5040925;28;20209;-70
2024/01/19 03:27:40;;;;;;;24.93;17.13;;;-0.50;99.90;;;;;;5037333;28;20200;-70
2024/01/19 03:30:06;;;;;;;27.47;18.47;;;-0.50;99.90;;;;;;5041291;28;20647;-70
2024/01/19 03:32:31;;;;;;;28.67;18.30;;;-0.60;99.90;;;;;;5031684;28;20286;-70
2024/01/19 03:34:57;;;;;;;25.03;17.43;;;-0.60;99.90;;;;;;5012914;28;20462;-70
2024/01/19 03:37:23;;;;;;;22.97;14.90;;;-0.60;99.90;;;;;;5024780;28;20184;-70
2024/01/19 03:39:48;;;;;;;25.33;16.77;;;-0.70;99.90;;;;;;5037145;28;20388;-70
2024/01/19 03:42:14;;;;;;;30.03;18.77;;;-0.70;99.90;;;;;;5032334;28;20213;-70
2024/01/19 03:44:40;;;;;;;27.80;16.90;;;-0.80;99.90;;;;;;5028779;28;20574;-70
2024/01/19 03:47:06;;;;;;;28.13;17.07;;;-0.80;99.90;;;;;;5034401;28;20269;-70
2024/01/19 03:49:31;;;;;;;23.13;16.53;;;-0.90;99.90;;;;;;5040488;28;21051;-70
2024/01/19 03:52:01;;;;;;;28.03;17.87;;;-0.80;99.90;;;;;;5040732;28;20190;-70
2024/01/19 03:54:27;;;;;;;28.13;16.57;;;-0.80;99.90;;;;;;5032824;28;20641;-70
2024/01/19 03:56:53;;;;;;;27.53;17.73;;;-0.80;99.90;;;;;;5014758;28;20487;-70
2024/01/19 03:59:18;;;;;;;33.00;19.33;;;-0.80;99.90;;;;;;5042889;28;20178;-70
2024/01/19 04:01:44;;;;;;;28.33;19.23;;;-0.70;99.90;;;;;;5030995;28;20457;-70
2024/01/19 04:04:09;;;;;;;27.27;17.50;;;-0.70;99.90;;;;;;5045239;28;20185;-70
2024/01/19 04:06:35;;;;;;;33.43;20.07;;;-0.70;99.90;;;;;;5031443;28;20185;-70
2024/01/19 04:09:01;;;;;;;24.97;18.47;;;-0.70;99.90;;;;;;5040798;28;20170;-70
2024/01/19 04:11:26;;;;;;;30.93;20.20;;;-0.70;99.90;;;;;;5037489;28;20460;-70
2024/01/19 04:13:52;;;;;;;30.43;22.10;;;-0.70;99.90;;;;;;5044070;28;20710;-70
2024/01/19 04:16:18;;;;;;;25.20;18.43;;;-0.70;99.90;;;;;;5020922;28;20191;-70
2024/01/19 04:18:43;;;;;;;29.20;18.73;;;-0.70;99.90;;;;;;5025400;28;20182;-70
2024/01/19 04:21:09;;;;;;;26.07;17.90;;;-0.70;99.90;;;;;;5043521;28;20208;-70
2024/01/19 04:23:35;;;;;;;24.00;16.60;;;-0.70;99.90;;;;;;5036869;28;20188;-70
2024/01/19 04:26:01;;;;;;;29.57;18.20;;;-0.70;99.90;;;;;;5032764;28;20205;-70
2024/01/19 04:28:26;;;;;;;28.60;18.10;;;-0.70;99.90;;;;;;5034785;28;20509;-70
2024/01/19 04:30:52;;;;;;;32.33;21.50;;;-0.70;99.90;;;;;;5039230;28;20174;-70
2024/01/19 04:33:17;;;;;;;33.00;21.77;;;-0.70;99.90;;;;;;5045416;28;20173;-70
2024/01/19 04:35:43;;;;;;;24.77;17.20;;;-0.60;99.90;;;;;;5016083;28;20198;-70
2024/01/19 04:38:08;;;;;;;25.13;17.83;;;-0.60;99.90;;;;;;5029015;28;20205;-70
2024/01/19 04:40:34;;;;;;;27.97;17.03;;;-0.60;99.90;;;;;;5045741;28;20181;-70
2024/01/19 04:42:59;;;;;;;26.60;17.67;;;-0.60;99.90;;;;;;5035532;28;20224;-70
2024/01/19 04:45:25;;;;;;;23.30;16.67;;;-0.60;99.90;;;;;;5031743;28;20578;-70
2024/01/19 04:47:50;;;;;;;28.40;18.30;;;-0.50;99.90;;;;;;5043303;28;20178;-70
2024/01/19 04:50:16;;;;;;;27.30;18.53;;;-0.50;99.90;;;;;;5038202;28;20183;-70
2024/01/19 04:52:41;;;;;;;22.37;16.73;;;-0.40;99.90;;;;;;5047170;28;20544;-70
2024/01/19 04:55:07;;;;;;;28.80;16.50;;;-0.40;99.90;;;;;;5039521;28;20655;-70
2024/01/19 04:57:33;;;;;;;28.30;18.23;;;-0.40;99.90;;;;;;5038410;28;20177;-70
2024/01/19 04:59:58;;;;;;;28.73;18.67;;;-0.40;99.90;;;;;;5046267;28;20181;-70
2024/01/19 05:02:24;;;;;;;27.00;18.00;;;-0.40;99.90;;;;;;5034594;28;20616;-70
2024/01/19 05:04:50;;;;;;;21.30;16.83;;;-0.40;99.90;;;;;;5046217;28;20201;-70
2024/01/19 05:07:15;;;;;;;28.53;19.27;;;-0.40;99.90;;;;;;5036595;28;20673;-70
2024/01/19 05:09:41;;;;;;;24.53;16.70;;;-0.40;99.90;;;;;;5046390;28;20843;-70
2024/01/19 05:12:06;;;;;;;27.80;19.30;;;-0.40;99.90;;;;;;5055186;28;20603;-70
2024/01/19 05:14:32;;;;;;;27.23;18.97;;;-0.50;99.90;;;;;;5045601;28;20194;-70
2024/01/19 05:16:57;;;;;;;24.80;16.47;;;-0.50;99.90;;;;;;5035870;28;20640;-70
2024/01/19 05:19:23;;;;;;;25.27;16.93;;;-0.50;99.90;;;;;;5042372;28;20763;-70
2024/01/19 05:21:48;;;;;;;28.83;17.23;;;-0.50;99.90;;;;;;5041546;28;20577;-70
2024/01/19 05:24:14;;;;;;;26.37;17.93;;;-0.50;99.90;;;;;;5044122;28;20253;-70
2024/01/19 05:26:39;;;;;;;30.83;17.97;;;-0.50;99.90;;;;;;5035012;28;20231;-70
2024/01/19 05:29:05;;;;;;;24.90;17.77;;;-0.60;99.90;;;;;;5037521;28;20252;-70
2024/01/19 05:31:31;;;;;;;32.27;18.23;;;-0.70;99.90;;;;;;5024615;28;20191;-70
2024/01/19 05:33:56;;;;;;;31.40;19.77;;;-0.70;99.90;;;;;;5015095;28;20664;-70
2024/01/19 05:36:23;;;;;;;31.70;18.47;;;-0.60;99.90;;;;;;5037255;28;20671;-70
2024/01/19 05:38:49;;;;;;;24.43;17.23;;;-0.70;99.90;;;;;;5042491;28;20729;-70
2024/01/19 05:41:21;;;;;;;27.00;17.97;;;-0.60;99.90;;;;;;5034061;28;20507;-70
2024/01/19 05:43:47;;;;;;;27.90;18.50;;;-0.50;99.90;;;;;;5044081;28;20177;-70
2024/01/19 05:46:14;;;;;;;31.07;19.20;;;-0.50;99.90;;;;;;5034295;28;20974;-70
2024/01/19 05:48:39;;;;;;;29.13;18.30;;;-0.50;99.90;;;;;;5026815;28;20442;-70
2024/01/19 05:51:14;;;;;;;26.63;17.57;;;-0.50;99.90;;;;;;5041147;28;20456;-70
2024/01/19 05:53:39;;;;;;;25.73;19.33;;;-0.50;99.90;;;;;;5014829;28;20217;-70
2024/01/19 05:56:05;;;;;;;28.10;18.73;;;-0.50;99.90;;;;;;5014600;28;20430;-70
2024/01/19 05:58:30;;;;;;;22.77;17.03;;;-0.50;99.90;;;;;;5026867;28;20173;-70
2024/01/19 06:00:56;;;;;;;24.13;17.67;;;-0.50;99.90;;;;;;5034228;28;20206;-70
2024/01/19 06:03:21;;;;;;;26.03;18.03;;;-0.50;99.90;;;;;;5045167;28;20176;-70
2024/01/19 06:05:47;;;;;;;23.20;17.07;;;-0.50;99.90;;;;;;5047370;28;20228;-70
2024/01/19 06:08:12;;;;;;;29.90;18.20;;;-0.60;99.90;;;;;;5035830;28;20178;-70
2024/01/19 06:10:38;;;;;;;28.00;18.47;;;-0.50;99.90;;;;;;5032542;28;20179;-70
2024/01/19 06:13:03;;;;;;;22.77;15.50;;;-0.60;99.90;;;;;;5024402;28;20179;-70
2024/01/19 06:15:29;;;;;;;30.87;19.57;;;-0.60;99.90;;;;;;5031165;28;20189;-70
2024/01/19 06:17:55;;;;;;;23.90;18.87;;;-0.60;99.90;;;;;;5037737;28;20179;-69
2024/01/19 06:20:20;;;;;;;32.27;18.73;;;-0.60;99.90;;;;;;5044994;28;20185;-70
2024/01/19 06:22:46;;;;;;;25.27;16.90;;;-0.70;99.90;;;;;;5041413;28;20193;-69
2024/01/19 06:25:11;;;;;;;25.50;18.83;;;-0.70;99.90;;;;;;5042290;28;20208;-69
2024/01/19 06:27:37;;;;;;;27.87;18.67;;;-0.80;99.90;;;;;;5027826;28;20181;-69
2024/01/19 06:30:04;;;;;;;29.53;19.63;;;-0.90;99.90;;;;;;5042997;28;20180;-69
2024/01/19 06:32:30;;;;;;;27.90;17.20;;;-0.90;99.90;;;;;;5031779;28;20198;-69
2024/01/19 06:34:55;;;;;;;28.50;19.57;;;-0.90;99.90;;;;;;5041914;28;20448;-69
2024/01/19 06:37:21;;;;;;;28.97;18.77;;;-0.90;99.90;;;;;;5045659;28;20902;-69
2024/01/19 06:39:46;;;;;;;26.60;18.60;;;-0.90;99.90;;;;;;5045220;28;20173;-70
2024/01/19 06:42:13;;;;;;;23.10;16.63;;;-0.90;99.90;;;;;;5036114;28;20759;-69
2024/01/19 06:44:42;;;;;;;27.57;17.43;;;-0.90;99.90;;;;;;5038960;28;20284;-70
2024/01/19 06:47:07;;;;;;;28.77;18.30;;;-0.80;99.90;;;;;;5033327;28;20436;-69
2024/01/19 06:49:33;;;;;;;29.10;19.47;;;-0.80;99.90;;;;;;5027503;28;20432;-69
2024/01/19 06:51:59;;;;;;;31.50;18.27;;;-0.80;99.90;;;;;;5026133;28;20202;-69
2024/01/19 06:54:25;;;;;;;30.10;19.83;;;-0.80;99.90;;;;;;5044819;28;20177;-69
2024/01/19 06:56:50;;;;;;;27.43;19.57;;;-0.80;99.90;;;;;;5030531;28;20429;-69
2024/01/19 06:59:16;;;;;;;29.20;17.87;;;-0.80;99.90;;;;;;5023708;28;20199;-69
2024/01/19 07:01:41;;;;;;;23.97;18.77;;;-0.70;99.90;;;;;;5029962;28;20202;-69
2024/01/19 07:04:07;;;;;;;26.17;18.37;;;-0.70;99.90;;;;;;5040370;28;20208;-69
2024/01/19 07:06:33;;;;;;;37.87;18.47;;;-0.60;99.90;;;;;;5040232;28;20180;-69
2024/01/19 07:08:59;;;;;;;26.83;18.47;;;-0.60;99.90;;;;;;5039607;28;20196;-70
2024/01/19 07:11:24;;;;;;;24.97;17.33;;;-0.50;99.90;;;;;;5040686;28;20463;-69
2024/01/19 07:13:50;;;;;;;26.43;16.77;;;-0.50;99.90;;;;;;5035385;28;20436;-70
2024/01/19 07:16:15;;;;;;;40.20;18.50;;;-0.50;99.90;;;;;;5040145;28;20173;-69
2024/01/19 07:18:41;;;;;;;28.10;19.10;;;-0.50;99.90;;;;;;5037045;28;20174;-69
2024/01/19 07:21:06;;;;;;;29.97;19.23;;;-0.50;99.90;;;;;;5025675;28;20217;-70
2024/01/19 07:23:32;;;;;;;26.83;19.10;;;-0.50;99.90;;;;;;5028869;28;20236;-69
2024/01/19 07:25:57;;;;;;;29.10;19.00;;;-0.50;99.90;;;;;;5030855;28;20205;-69
2024/01/19 07:28:23;;;;;;;35.53;19.57;;;-0.40;99.90;;;;;;5027273;28;20171;-70
2024/01/19 07:30:49;;;;;;;23.07;17.47;;;-0.40;99.90;;;;;;5031552;28;20174;-70
2024/01/19 07:33:14;;;;;;;27.10;17.67;;;-0.40;99.90;;;;;;5029566;28;20655;-69
2024/01/19 07:35:40;;;;;;;25.13;18.10;;;-0.50;99.90;;;;;;5048283;28;20261;-69
2024/01/19 07:38:05;;;;;;;28.63;19.60;;;-0.50;99.90;;;;;;5030583;28;20615;-69
2024/01/19 07:40:32;;;;;;;32.07;21.90;;;-0.50;99.90;;;;;;5040651;28;20260;-70
2024/01/19 07:42:58;;;;;;;27.40;20.50;;;-0.50;99.90;;;;;;5030525;28;20714;-70
2024/01/19 07:45:23;;;;;;;28.60;18.70;;;-0.50;99.90;;;;;;5026316;28;20458;-69
2024/01/19 07:47:49;;;;;;;30.03;18.93;;;-0.40;99.90;;;;;;5040170;28;20178;-69
2024/01/19 07:50:14;;;;;;;27.63;19.33;;;-0.50;99.90;;;;;;5039227;28;20648;-69
2024/01/19 07:52:40;;;;;;;29.63;20.13;;;-0.50;99.90;;;;;;5046487;28;20205;-69
2024/01/19 07:55:05;;;;;;;30.67;19.60;;;-0.50;99.90;;;;;;5036788;28;20240;-70
2024/01/19 07:57:31;;;;;;;31.10;18.13;;;-0.50;99.90;;;;;;5035331;28;20281;-70
2024/01/19 07:59:56;;;;;;;24.97;17.47;;;-0.50;99.90;;;;;;5034487;28;20260;-69
2024/01/19 08:02:22;;;;;;;25.83;19.30;;;-0.30;99.90;;;;;;5037243;28;20209;-70
2024/01/19 08:04:48;;;;;;;32.40;20.03;;;-0.20;99.90;;;;;;5035889;28;20205;-70
2024/01/19 08:07:13;;;;;;;33.00;20.53;;;0.00;99.90;;;;;;5029794;28;20182;-69
2024/01/19 08:09:38;;;;;;;25.00;19.27;;;0.70;99.90;;;;;;5034727;28;20742;-70
2024/01/19 08:12:05;;;;;;;27.90;17.73;;;1.20;99.90;;;;;;5029988;28;20199;-69
2024/01/19 08:14:31;;;;;;;25.03;17.90;;;1.30;99.90;;;;;;5029534;28;20182;-69
2024/01/19 08:16:56;;;;;;;26.47;18.77;;;1.50;99.90;;;;;;5022271;28;20438;-69
2024/01/19 08:19:22;;;;;;;22.20;16.17;;;2.30;99.90;;;;;;5030876;28;20538;-70
2024/01/19 08:21:47;;;;;;;22.80;17.47;;;3.20;99.90;;;;;;5042086;28;20323;-70
2024/01/19 08:24:13;;;;;;;26.17;19.30;;;4.10;99.90;;;;;;5033195;28;20182;-69
2024/01/19 08:26:38;;;;;;;22.07;16.30;;;5.30;99.90;;;;;;5037893;28;20256;-70
2024/01/19 08:29:04;;;;;;;21.73;17.47;;;6.40;99.90;;;;;;5021902;28;20662;-69
2024/01/19 08:31:32;;;;;;;18.50;14.23;;;6.60;99.90;;;;;;5034703;28;20202;-70
2024/01/19 08:33:58;;;;;;;21.20;15.87;;;6.90;99.90;;;;;;5032714;28;20179;-70
2024/01/19 08:36:26;;;;;;;18.10;16.20;;;7.30;99.90;;;;;;5037604;28;20456;-69
2024/01/19 08:38:53;;;;;;;21.73;17.20;;;7.80;99.90;;;;;;5026942;28;20186;-69
2024/01/19 08:41:20;;;;;;;20.00;17.20;;;9.10;99.90;;;;;;5053903;22;20467;-70
2024/01/19 08:43:46;;;;;;;20.43;17.23;;;9.80;99.90;;;;;;5030156;28;20453;-68
2024/01/19 08:46:11;;;;;;;19.30;16.23;;;9.30;99.90;;;;;;5045217;28;20471;-68
2024/01/19 08:48:37;;;;;;;17.03;15.20;;;8.20;99.90;;;;;;5029778;28;20228;-68
2024/01/19 08:51:02;;;;;;;17.63;15.73;;;6.70;99.90;;;;;;5029709;28;20540;-68
2024/01/19 08:53:28;;;;;;;25.70;17.77;;;5.90;99.90;;;;;;5024962;28;20228;-68
2024/01/19 08:55:54;;;;;;;20.70;15.60;;;5.30;99.90;;;;;;5030848;28;20217;-68
2024/01/19 08:58:19;;;;;;;17.33;14.37;;;4.80;99.90;;;;;;5021414;28;20190;-68
2024/01/19 09:00:45;;;;;;;19.90;14.80;;;5.50;99.90;;;;;;5028765;28;20721;-68
2024/01/19 09:03:10;;;;;;;16.17;13.97;;;6.90;99.90;;;;;;5027387;28;20210;-68
2024/01/19 09:05:36;;;;;;;16.77;13.80;;;8.20;99.90;;;;;;5030186;28;20282;-69
2024/01/19 09:08:02;;;;;;;16.27;14.20;;;9.30;99.90;;;;;;5026492;28;20198;-68
2024/01/19 09:10:29;;;;;;;22.10;17.90;;;10.40;99.90;;;;;;5027071;28;20537;-68
2024/01/19 09:12:55;;;;;;;17.87;16.07;;;11.20;96.10;;;;;;5027861;28;20926;-69
2024/01/19 09:15:21;;;;;;;16.43;14.63;;;11.70;94.30;;;;;;5027060;28;20479;-68
2024/01/19 09:17:47;;;;;;;16.50;14.77;;;12.80;87.60;;;;;;5022258;28;20488;-69
2024/01/19 09:20:13;;;;;;;15.53;13.93;;;13.30;80.10;;;;;;5029747;28;20290;-69
2024/01/19 09:22:39;;;;;;;14.53;13.03;;;13.70;75.60;;;;;;5029422;28;20203;-69
2024/01/19 09:25:05;;;;;;;14.10;12.70;;;13.70;72.00;;;;;;5022125;28;20461;-69
2024/01/19 09:27:30;;;;;;;15.57;13.90;;;14.40;67.60;;;;;;5033258;28;20434;-68
2024/01/19 09:29:56;;;;;;;19.33;13.20;;;14.40;62.60;;;;;;5025124;28;21023;-69
2024/01/19 09:32:21;;;;;;;14.60;13.20;;;14.80;60.80;;;;;;5031853;28;20252;-69
2024/01/19 09:34:47;;;;;;;17.30;14.07;;;15.60;57.50;;;;;;5033831;28;20682;-69
2024/01/19 09:37:12;;;;;;;13.67;12.30;;;15.10;55.90;;;;;;5029890;28;20182;-69
2024/01/19 09:39:38;;;;;;;14.47;13.00;;;15.10;56.70;;;;;;5026195;28;20643;-69
2024/01/19 09:42:08;;;;;;;15.67;14.17;;;15.10;56.90;;;;;;5030504;28;20217;-69
2024/01/19 09:44:36;;;;;;;14.43;13.03;;;15.20;55.30;;;;;;5030760;28;20230;-69
2024/01/19 09:47:01;;;;;;;19.33;14.33;;;14.30;55.00;;;;;;5031787;28;20444;-69
2024/01/19 09:50:03;;;;;;;15.73;14.33;;;13.20;59.80;;;;;;5027786;28;20440;-69
2024/01/19 09:52:52;;;;;;;13.73;12.37;;;12.20;65.60;;;;;;5024960;28;20267;-69
2024/01/19 09:55:19;;;;;;;14.90;13.37;;;10.40;70.80;;;;;;5023767;28;20446;-68
2024/01/19 09:57:47;;;;;;;12.13;10.97;;;10.90;78.80;;;;;;5031047;28;20441;-68
2024/01/19 10:00:14;;;;;;;13.63;12.00;;;10.60;78.20;;;;;;5025966;28;20444;-68
2024/01/19 10:02:48;;;;;;;14.43;11.90;;;10.40;83.70;;;;;;5031547;28;20538;-68
2024/01/19 10:05:15;;;;;;;13.70;11.40;;;10.60;86.90;;;;;;5025221;28;20472;-68
2024/01/19 10:07:46;;;;;;;11.40;9.63;;;10.20;86.80;;;;;;5047993;28;20524;-68
2024/01/19 10:10:12;;;;;;;10.40;9.33;;;9.80;90.50;;;;;;5026845;28;20486;-68
2024/01/19 10:12:38;;;;;;;11.60;10.07;;;8.70;94.40;;;;;;5025987;28;20495;-68
2024/01/19 10:15:06;;;;;;;12.50;9.70;;;7.40;99.40;;;;;;5032404;28;20441;-68
2024/01/19 10:17:33;;;;;;;13.93;9.87;;;6.30;99.90;;;;;;5030701;28;20582;-68
2024/01/19 10:19:59;;;;;;;15.70;12.47;;;5.50;99.90;;;;;;5032075;28;20453;-68
2024/01/19 10:22:29;;;;;;;16.83;10.60;;;5.10;99.90;;;;;;5031444;28;20453;-68
2024/01/19 10:25:03;;;;;;;15.13;9.53;;;5.00;99.90;;;;;;5025715;28;20469;-68
2024/01/19 10:27:44;;;;;;;11.17;10.00;;;5.20;99.90;;;;;;5025273;28;20929;-68
2024/01/19 10:30:15;;;;;;;11.27;9.90;;;4.90;99.90;;;;;;5024191;28;20440;-68
2024/01/19 10:32:41;;;;;;;14.73;11.40;;;4.80;99.90;;;;;;5028831;28;20458;-68
2024/01/19 10:35:10;;;;;;;10.50;9.40;;;5.40;99.90;;;;;;5031173;28;20812;-68
2024/01/19 10:37:36;;;;;;;12.03;9.70;;;7.70;99.90;;;;;;5021696;28;20528;-68
2024/01/19 10:40:18;;;;;;;11.97;10.73;;;10.80;99.90;;;;;;5030059;28;20535;-68
2024/01/19 10:42:45;;;;;;;9.80;8.80;;;13.40;81.40;;;;;;5031958;28;20590;-69
2024/01/19 10:45:27;;;;;;;12.90;9.37;;;14.30;66.30;;;;;;5030257;28;20468;-69
2024/01/19 10:47:54;;;;;;;9.57;8.67;;;14.80;61.20;;;;;;5030799;28;20436;-69
2024/01/19 10:50:21;;;;;;;10.57;9.57;;;15.50;57.40;;;;;;5023964;28;20440;-69
2024/01/19 10:52:49;;;;;;;10.20;9.00;;;16.50;54.30;;;;;;5029351;28;20461;-69
2024/01/19 10:55:22;;;;;;;8.80;8.00;;;17.60;48.90;;;;;;5022333;28;20801;-69
2024/01/19 10:57:56;;;;;;;9.20;8.40;;;14.70;50.40;;;;;;5031065;28;20436;-68
2024/01/19 11:00:24;;;;;;;7.90;7.20;;;12.60;53.60;;;;;;5026938;28;20783;-69
2024/01/19 11:03:03;;;;;;;9.30;8.40;;;10.30;65.20;;;;;;5027827;28;20498;-68
2024/01/19 11:05:29;;;;;;;8.10;7.30;;;9.70;77.40;;;;;;5026974;28;20472;-69
2024/01/19 11:07:59;;;;;;;10.60;9.47;;;10.70;72.90;;;;;;5024373;28;20843;-69
2024/01/19 11:10:27;;;;;;;9.30;8.40;;;12.80;64.70;;;;;;5027940;28;20178;-69
2024/01/19 11:12:58;;;;;;;7.57;6.87;;;15.10;56.60;;;;;;5023152;28;20896;-70
2024/01/19 11:15:47;;;;;;;7.53;6.80;;;16.70;49.60;;;;;;5026687;28;20446;-69
2024/01/19 11:18:15;;;;;;;8.60;7.60;;;17.10;44.20;;;;;;5028924;28;20444;-69
2024/01/19 11:20:40;;;;;;;8.70;7.97;;;17.10;45.10;;;;;;5030570;28;20436;-69
2024/01/19 11:23:07;;;;;;;9.67;8.67;;;18.30;43.10;;;;;;5045520;28;20464;-70
2024/01/19 11:25:51;;;;;;;8.87;7.50;;;17.30;42.20;;;;;;5023654;28;20202;-69
2024/01/19 11:28:33;;;;;;;8.87;8.07;;;16.70;43.60;;;;;;5026741;28;20511;-69
2024/01/19 11:31:02;;;;;;;9.53;8.70;;;16.60;44.80;;;;;;5026823;28;20528;-69
2024/01/19 11:33:34;;;;;;;7.13;6.63;;;17.20;42.60;;;;;;5031436;28;20532;-70
2024/01/19 11:35:59;;;;;;;8.07;7.37;;;18.10;39.60;;;;;;5027803;28;20475;-70
2024/01/19 11:38:44;;;;;;;8.60;7.80;;;17.30;40.80;;;;;;5029765;28;20472;-69
2024/01/19 11:41:30;;;;;;;8.40;7.70;;;14.90;41.40;;;;;;5025639;28;20197;-69
2024/01/19 11:43:56;;;;;;;9.17;8.37;;;13.70;46.30;;;;;;5024729;28;20904;-69
2024/01/19 11:46:47;;;;;;;9.33;8.50;;;13.90;46.70;;;;;;5027065;28;20553;-69
2024/01/19 11:49:35;;;;;;;8.20;7.50;;;12.80;47.30;;;;;;5029317;28;20178;-69
2024/01/19 11:52:03;;;;;;;8.30;7.50;;;11.30;50.40;;;;;;5028916;28;20544;-69
2024/01/19 11:54:30;;;;;;;9.13;8.00;;;9.80;58.60;;;;;;5026493;28;20433;-70
2024/01/19 11:57:18;;;;;;;8.17;7.47;;;10.50;65.00;;;;;;5026960;28;20465;-69
2024/01/19 11:59:44;;;;;;;7.97;7.17;;;12.90;55.90;;;;;;5027015;28;20933;-70
2024/01/19 12:02:27;;;;;;;7.97;7.27;;;16.90;46.30;;;;;;5026929;28;20455;-70
2024/01/19 12:04:54;;;;;;;10.17;7.40;;;18.50;42.10;;;;;;5029850;28;21194;-70
2024/01/19 12:07:23;;;;;;;7.20;6.40;;;16.50;40.30;;;;;;5028046;28;20433;-69
2024/01/19 12:10:08;;;;;;;8.03;7.07;;;14.40;43.00;;;;;;5029320;28;20784;-69
2024/01/19 12:12:34;;;;;;;8.40;7.27;;;12.80;47.30;;;;;;5023712;28;20957;-69
2024/01/19 12:15:05;;;;;;;7.13;6.50;;;12.50;49.30;;;;;;5024424;28;20437;-69
2024/01/19 12:17:31;;;;;;;7.07;6.37;;;11.20;52.20;;;;;;5027721;28;20452;-69
2024/01/19 12:19:57;;;;;;;8.27;7.10;;;9.30;58.10;;;;;;5044692;28;20444;-69
2024/01/19 12:22:22;;;;;;;7.40;6.70;;;8.30;70.00;;;;;;5026662;28;20460;-69
2024/01/19 12:24:48;;;;;;;8.43;6.73;;;7.50;82.20;;;;;;5026177;28;20836;-69
2024/01/19 12:27:17;;;;;;;7.23;6.17;;;6.70;90.40;;;;;;5041064;28;20229;-70
2024/01/19 12:29:44;;;;;;;7.77;7.07;;;6.20;94.90;;;;;;5022586;28;20179;-69
2024/01/19 12:32:10;;;;;;;7.70;6.90;;;5.70;99.10;;;;;;5028209;28;20476;-69